• Join FlightAware (Why Join?)
  • Login
  • US Flag 
01:28PM EDT


 

Airport Tracker/Info


-or-


 

Live Flight TrackerFlight Track Log ✈ N21459 ✈ 20-Jun-2013 ✈ KAZO - KPTK

Flight Track Log - Related Links

Times and Time Zones

All times are in EDT time to prevent confusion due to time zone crossing. See the N21459 flight status page for this flight to view local times or setup timezone preferences in your user account.

Time Position Orientation Groundspeed Altitude Reporting Facility
EDT Latitude Longitude Course Direction KTS MPH feet Rate Location/Type
01:27PM 42.2572 -85.5469 70° East 102 117 1,400  Level Chicago Center
01:29PM 42.2628 -85.4415 86° East  Level FlightAware Approximate
01:30PM 42.2921 -85.2842 70° East  Level FlightAware Approximate
01:31PM 42.3061 -85.2319 70° East  Level FlightAware Approximate
01:32PM 42.3202 -85.1796 70° East  Level FlightAware Approximate
01:35PM 42.1994 -85.4889 93° East 134 154 2,000  Level Chicago Center
01:36PM 42.3468 -85.0801 70° East  Level FlightAware Approximate
01:36PM 42.2144 -85.4458 65° Northeast 129 148 2,800  Level Chicago Center
01:37PM 42.3607 -85.0277 70° East  Level FlightAware Approximate
01:38PM 42.3747 -84.9752 70° East  Level FlightAware Approximate
01:38PM 42.2444 -85.3442 68° East 131 151 3,600  Level Chicago Center
01:39PM 42.3886 -84.9228 70° East  Level FlightAware Approximate
01:39PM 42.2586 -85.2978 68° East 133 153 4,100  Level Chicago Center
01:40PM 42.2733 -85.2500 67° East 130 150 4,800 420 Climbing Chicago Center
01:41PM 42.2867 -85.2039 69° East 130 150 5,000 60 Climbing Chicago Center
01:42PM 42.3042 -85.1511 66° East 145 167 5,000  Level Chicago Center
01:43PM 42.3200 -85.0958 69° East 155 178 5,000  Level Chicago Center
01:44PM 42.3364 -85.0428 67° East 154 177 5,000  Level Chicago Center
01:45PM 42.3553 -84.9803 68° East 151 174 5,000  Level Chicago Center
01:46PM 42.3722 -84.9253 67° East 155 178 5,000  Level Chicago Center
01:47PM 42.3864 -84.8678 72° East 161 185 5,000 -60 Level Chicago Center
01:48PM 42.3961 -84.8125 77° East 154 177 4,900  Descending Chicago Center
01:49PM 42.4081 -84.7572 74° East 154 177 5,000  Climbing Chicago Center
01:50PM 42.4214 -84.6903 75° East 154 177 5,000  Level Chicago Center
01:51PM 42.4325 -84.6333 75° East 156 180 5,000  Level Chicago Center
01:52PM 42.4433 -84.5767 75° East 156 180 5,000 -60 Level Chicago Center
01:53PM 42.4544 -84.5225 74° East 152 175 4,900 -60 Descending Chicago Center
01:54PM 42.4658 -84.4658 75° East 155 178 4,900  Level Chicago Center
01:55PM 42.4767 -84.4108 75° East 153 176 5,000  Climbing Chicago Center
01:56PM 42.4892 -84.3431 76° East 154 177 5,000 -60 Level Chicago Center
01:57PM 42.4983 -84.2950 75° East 162 186 4,900  Descending Cleveland Center
01:58PM 42.5103 -84.2422 73° East 160 184 5,000 60 Climbing Cleveland Center